sensor_id;sensor_type;location;lat;lon;timestamp;P1;durP1;ratioP1;P2;durP2;ratioP2
51048;SDS011;37084;55.228;36.450;2023-11-19T00:02:42;12.60;;;6.38;;
51048;SDS011;37084;55.228;36.450;2023-11-19T00:05:43;14.20;;;5.90;;
51048;SDS011;37084;55.228;36.450;2023-11-19T00:08:49;14.77;;;6.50;;
51048;SDS011;37084;55.228;36.450;2023-11-19T00:11:51;17.30;;;6.28;;
51048;SDS011;37084;55.228;36.450;2023-11-19T00:14:52;19.33;;;6.53;;
51048;SDS011;37084;55.228;36.450;2023-11-19T00:17:53;16.73;;;7.15;;
51048;SDS011;37084;55.228;36.450;2023-11-19T00:20:55;15.38;;;7.10;;
51048;SDS011;37084;55.228;36.450;2023-11-19T00:23:56;13.85;;;6.55;;
51048;SDS011;37084;55.228;36.450;2023-11-19T00:26:59;18.75;;;8.13;;
51048;SDS011;37084;55.228;36.450;2023-11-19T00:30:00;14.88;;;6.38;;
51048;SDS011;37084;55.228;36.450;2023-11-19T00:33:04;19.63;;;7.50;;
51048;SDS011;37084;55.228;36.450;2023-11-19T00:36:06;17.95;;;7.07;;
51048;SDS011;37084;55.228;36.450;2023-11-19T00:39:08;15.82;;;6.63;;
51048;SDS011;37084;55.228;36.450;2023-11-19T00:42:09;20.27;;;7.43;;
51048;SDS011;37084;55.228;36.450;2023-11-19T00:45:12;23.52;;;7.70;;
51048;SDS011;37084;55.228;36.450;2023-11-19T00:48:13;18.75;;;8.27;;
51048;SDS011;37084;55.228;36.450;2023-11-19T00:51:14;25.80;;;8.77;;
51048;SDS011;37084;55.228;36.450;2023-11-19T00:54:16;22.35;;;8.20;;
51048;SDS011;37084;55.228;36.450;2023-11-19T00:57:17;21.55;;;8.68;;
51048;SDS011;37084;55.228;36.450;2023-11-19T01:00:19;24.63;;;10.27;;
51048;SDS011;37084;55.228;36.450;2023-11-19T01:03:21;17.33;;;8.15;;
51048;SDS011;37084;55.228;36.450;2023-11-19T01:06:26;20.65;;;8.55;;
51048;SDS011;37084;55.228;36.450;2023-11-19T01:09:34;15.75;;;7.55;;
51048;SDS011;37084;55.228;36.450;2023-11-19T01:12:36;19.95;;;8.63;;
51048;SDS011;37084;55.228;36.450;2023-11-19T01:15:40;18.55;;;8.27;;
51048;SDS011;37084;55.228;36.450;2023-11-19T01:18:42;20.30;;;7.88;;
51048;SDS011;37084;55.228;36.450;2023-11-19T01:21:44;19.00;;;8.38;;
51048;SDS011;37084;55.228;36.450;2023-11-19T01:24:45;22.88;;;10.18;;
51048;SDS011;37084;55.228;36.450;2023-11-19T01:27:48;20.48;;;9.10;;
51048;SDS011;37084;55.228;36.450;2023-11-19T01:30:50;22.25;;;9.60;;
51048;SDS011;37084;55.228;36.450;2023-11-19T01:33:52;19.95;;;7.65;;
51048;SDS011;37084;55.228;36.450;2023-11-19T01:36:53;18.23;;;8.25;;
51048;SDS011;37084;55.228;36.450;2023-11-19T01:39:55;18.70;;;6.82;;
51048;SDS011;37084;55.228;36.450;2023-11-19T01:42:56;12.57;;;6.32;;
51048;SDS011;37084;55.228;36.450;2023-11-19T01:45:57;16.98;;;7.05;;
51048;SDS011;37084;55.228;36.450;2023-11-19T01:48:59;20.55;;;6.85;;
51048;SDS011;37084;55.228;36.450;2023-11-19T01:52:01;14.35;;;7.15;;
51048;SDS011;37084;55.228;36.450;2023-11-19T01:55:02;13.10;;;6.95;;
51048;SDS011;37084;55.228;36.450;2023-11-19T01:58:06;11.35;;;5.97;;
51048;SDS011;37084;55.228;36.450;2023-11-19T02:01:08;18.42;;;6.60;;
51048;SDS011;37084;55.228;36.450;2023-11-19T02:04:11;17.60;;;6.78;;
51048;SDS011;37084;55.228;36.450;2023-11-19T02:07:15;17.27;;;6.20;;
51048;SDS011;37084;55.228;36.450;2023-11-19T02:10:18;17.77;;;7.72;;
51048;SDS011;37084;55.228;36.450;2023-11-19T02:13:20;17.45;;;6.40;;
51048;SDS011;37084;55.228;36.450;2023-11-19T02:16:22;15.63;;;6.93;;
51048;SDS011;37084;55.228;36.450;2023-11-19T02:19:25;25.10;;;8.00;;
51048;SDS011;37084;55.228;36.450;2023-11-19T02:22:47;19.08;;;7.57;;
51048;SDS011;37084;55.228;36.450;2023-11-19T02:26:02;18.65;;;7.25;;
51048;SDS011;37084;55.228;36.450;2023-11-19T02:29:06;21.00;;;8.25;;
51048;SDS011;37084;55.228;36.450;2023-11-19T02:32:07;17.65;;;8.23;;
51048;SDS011;37084;55.228;36.450;2023-11-19T02:35:10;21.27;;;8.45;;
51048;SDS011;37084;55.228;36.450;2023-11-19T02:38:11;19.27;;;7.82;;
51048;SDS011;37084;55.228;36.450;2023-11-19T02:41:15;16.60;;;8.00;;
51048;SDS011;37084;55.228;36.450;2023-11-19T02:44:16;21.38;;;7.68;;
51048;SDS011;37084;55.228;36.450;2023-11-19T02:47:18;17.13;;;7.72;;
51048;SDS011;37084;55.228;36.450;2023-11-19T02:50:22;18.00;;;7.50;;
51048;SDS011;37084;55.228;36.450;2023-11-19T02:53:27;14.30;;;7.57;;
51048;SDS011;37084;55.228;36.450;2023-11-19T02:56:29;19.40;;;7.72;;
51048;SDS011;37084;55.228;36.450;2023-11-19T02:59:38;16.38;;;8.05;;
51048;SDS011;37084;55.228;36.450;2023-11-19T03:02:42;22.70;;;9.13;;
51048;SDS011;37084;55.228;36.450;2023-11-19T03:05:47;15.05;;;7.40;;
51048;SDS011;37084;55.228;36.450;2023-11-19T03:08:48;15.35;;;7.30;;
51048;SDS011;37084;55.228;36.450;2023-11-19T03:11:50;16.50;;;7.65;;
51048;SDS011;37084;55.228;36.450;2023-11-19T03:14:51;21.67;;;8.45;;
51048;SDS011;37084;55.228;36.450;2023-11-19T03:17:52;16.00;;;6.80;;
51048;SDS011;37084;55.228;36.450;2023-11-19T03:20:54;22.73;;;7.88;;
51048;SDS011;37084;55.228;36.450;2023-11-19T03:23:56;15.95;;;7.03;;
51048;SDS011;37084;55.228;36.450;2023-11-19T03:27:02;12.35;;;6.03;;
51048;SDS011;37084;55.228;36.450;2023-11-19T03:30:08;17.92;;;7.45;;
51048;SDS011;37084;55.228;36.450;2023-11-19T03:33:13;19.27;;;6.88;;
51048;SDS011;37084;55.228;36.450;2023-11-19T03:36:14;19.08;;;7.53;;
51048;SDS011;37084;55.228;36.450;2023-11-19T03:39:15;12.88;;;6.20;;
51048;SDS011;37084;55.228;36.450;2023-11-19T03:42:18;14.68;;;6.75;;
51048;SDS011;37084;55.228;36.450;2023-11-19T03:45:21;16.27;;;7.38;;
51048;SDS011;37084;55.228;36.450;2023-11-19T03:48:23;15.90;;;7.78;;
51048;SDS011;37084;55.228;36.450;2023-11-19T03:51:24;17.85;;;7.65;;
51048;SDS011;37084;55.228;36.450;2023-11-19T03:54:26;10.30;;;5.53;;
51048;SDS011;37084;55.228;36.450;2023-11-19T03:57:28;14.02;;;6.65;;
51048;SDS011;37084;55.228;36.450;2023-11-19T04:00:29;21.80;;;7.63;;
51048;SDS011;37084;55.228;36.450;2023-11-19T04:03:31;19.08;;;7.45;;
51048;SDS011;37084;55.228;36.450;2023-11-19T04:06:34;20.95;;;7.97;;
51048;SDS011;37084;55.228;36.450;2023-11-19T04:09:35;25.13;;;10.43;;
51048;SDS011;37084;55.228;36.450;2023-11-19T04:12:38;17.45;;;7.72;;
51048;SDS011;37084;55.228;36.450;2023-11-19T04:15:39;18.88;;;7.75;;
51048;SDS011;37084;55.228;36.450;2023-11-19T04:18:41;13.70;;;7.38;;
51048;SDS011;37084;55.228;36.450;2023-11-19T04:21:43;15.25;;;7.30;;
51048;SDS011;37084;55.228;36.450;2023-11-19T04:24:44;19.55;;;9.02;;
51048;SDS011;37084;55.228;36.450;2023-11-19T04:27:46;15.68;;;7.20;;
51048;SDS011;37084;55.228;36.450;2023-11-19T04:30:49;28.58;;;9.80;;
51048;SDS011;37084;55.228;36.450;2023-11-19T04:33:50;24.50;;;8.60;;
51048;SDS011;37084;55.228;36.450;2023-11-19T04:36:52;22.35;;;8.98;;
51048;SDS011;37084;55.228;36.450;2023-11-19T04:39:55;21.13;;;8.18;;
51048;SDS011;37084;55.228;36.450;2023-11-19T04:42:56;19.77;;;8.05;;
51048;SDS011;37084;55.228;36.450;2023-11-19T04:45:58;17.77;;;8.20;;
51048;SDS011;37084;55.228;36.450;2023-11-19T04:48:59;19.33;;;7.68;;
51048;SDS011;37084;55.228;36.450;2023-11-19T04:52:01;23.20;;;9.48;;
51048;SDS011;37084;55.228;36.450;2023-11-19T04:55:03;20.48;;;8.35;;
51048;SDS011;37084;55.228;36.450;2023-11-19T04:58:05;20.08;;;8.85;;
51048;SDS011;37084;55.228;36.450;2023-11-19T05:01:06;27.70;;;10.43;;
51048;SDS011;37084;55.228;36.450;2023-11-19T05:04:21;21.17;;;8.43;;
51048;SDS011;37084;55.228;36.450;2023-11-19T05:07:23;26.05;;;9.15;;
51048;SDS011;37084;55.228;36.450;2023-11-19T05:10:25;21.05;;;8.63;;
51048;SDS011;37084;55.228;36.450;2023-11-19T05:13:26;26.70;;;10.20;;
51048;SDS011;37084;55.228;36.450;2023-11-19T05:16:28;21.45;;;11.25;;
51048;SDS011;37084;55.228;36.450;2023-11-19T05:19:30;17.73;;;8.35;;
51048;SDS011;37084;55.228;36.450;2023-11-19T05:22:32;28.75;;;10.43;;
51048;SDS011;37084;55.228;36.450;2023-11-19T05:25:34;21.38;;;7.80;;
51048;SDS011;37084;55.228;36.450;2023-11-19T05:28:37;23.25;;;8.85;;
51048;SDS011;37084;55.228;36.450;2023-11-19T05:31:40;23.15;;;8.48;;
51048;SDS011;37084;55.228;36.450;2023-11-19T05:34:41;20.50;;;8.48;;
51048;SDS011;37084;55.228;36.450;2023-11-19T05:37:42;19.20;;;7.88;;
51048;SDS011;37084;55.228;36.450;2023-11-19T05:40:44;18.98;;;7.22;;
51048;SDS011;37084;55.228;36.450;2023-11-19T05:43:45;24.65;;;8.80;;
51048;SDS011;37084;55.228;36.450;2023-11-19T05:46:47;25.48;;;11.02;;
51048;SDS011;37084;55.228;36.450;2023-11-19T05:49:49;19.73;;;10.07;;
51048;SDS011;37084;55.228;36.450;2023-11-19T05:52:51;17.40;;;7.55;;
51048;SDS011;37084;55.228;36.450;2023-11-19T05:55:53;17.63;;;7.07;;
51048;SDS011;37084;55.228;36.450;2023-11-19T05:58:57;16.17;;;5.25;;
51048;SDS011;37084;55.228;36.450;2023-11-19T06:02:04;16.77;;;5.82;;
51048;SDS011;37084;55.228;36.450;2023-11-19T06:05:06;16.65;;;6.80;;
51048;SDS011;37084;55.228;36.450;2023-11-19T06:08:10;19.50;;;9.35;;
51048;SDS011;37084;55.228;36.450;2023-11-19T06:11:14;19.15;;;7.75;;
51048;SDS011;37084;55.228;36.450;2023-11-19T06:14:19;16.30;;;7.93;;
51048;SDS011;37084;55.228;36.450;2023-11-19T06:17:20;21.85;;;8.75;;
51048;SDS011;37084;55.228;36.450;2023-11-19T06:20:21;20.50;;;8.93;;
51048;SDS011;37084;55.228;36.450;2023-11-19T06:23:25;22.30;;;9.63;;
51048;SDS011;37084;55.228;36.450;2023-11-19T06:26:26;22.70;;;8.38;;
51048;SDS011;37084;55.228;36.450;2023-11-19T06:29:34;19.52;;;7.90;;
51048;SDS011;37084;55.228;36.450;2023-11-19T06:32:35;18.88;;;8.52;;
51048;SDS011;37084;55.228;36.450;2023-11-19T06:35:37;18.42;;;7.82;;
51048;SDS011;37084;55.228;36.450;2023-11-19T06:38:38;24.83;;;9.23;;
51048;SDS011;37084;55.228;36.450;2023-11-19T06:41:44;21.92;;;8.30;;
51048;SDS011;37084;55.228;36.450;2023-11-19T06:44:47;25.45;;;9.20;;
51048;SDS011;37084;55.228;36.450;2023-11-19T06:47:49;22.33;;;8.80;;
51048;SDS011;37084;55.228;36.450;2023-11-19T06:50:50;26.23;;;8.82;;
51048;SDS011;37084;55.228;36.450;2023-11-19T06:53:52;13.07;;;6.35;;
51048;SDS011;37084;55.228;36.450;2023-11-19T06:56:56;25.27;;;9.35;;
51048;SDS011;37084;55.228;36.450;2023-11-19T06:59:58;19.23;;;8.75;;
51048;SDS011;37084;55.228;36.450;2023-11-19T07:02:59;22.52;;;8.68;;
51048;SDS011;37084;55.228;36.450;2023-11-19T07:06:02;16.08;;;8.60;;
51048;SDS011;37084;55.228;36.450;2023-11-19T07:09:04;25.52;;;9.13;;
51048;SDS011;37084;55.228;36.450;2023-11-19T07:12:10;24.30;;;9.00;;
51048;SDS011;37084;55.228;36.450;2023-11-19T07:15:11;22.70;;;9.05;;
51048;SDS011;37084;55.228;36.450;2023-11-19T07:18:21;19.25;;;8.57;;
51048;SDS011;37084;55.228;36.450;2023-11-19T07:21:24;22.60;;;9.52;;
51048;SDS011;37084;55.228;36.450;2023-11-19T07:24:26;21.13;;;8.05;;
51048;SDS011;37084;55.228;36.450;2023-11-19T07:27:29;21.02;;;8.93;;
51048;SDS011;37084;55.228;36.450;2023-11-19T07:30:30;19.35;;;8.50;;
51048;SDS011;37084;55.228;36.450;2023-11-19T07:33:32;19.50;;;7.72;;
51048;SDS011;37084;55.228;36.450;2023-11-19T07:36:33;16.88;;;7.72;;
51048;SDS011;37084;55.228;36.450;2023-11-19T07:39:36;23.45;;;8.93;;
51048;SDS011;37084;55.228;36.450;2023-11-19T07:42:41;18.60;;;8.20;;
51048;SDS011;37084;55.228;36.450;2023-11-19T07:45:42;15.38;;;7.13;;
51048;SDS011;37084;55.228;36.450;2023-11-19T07:48:47;16.60;;;6.30;;
51048;SDS011;37084;55.228;36.450;2023-11-19T07:51:48;13.93;;;6.47;;
51048;SDS011;37084;55.228;36.450;2023-11-19T07:54:53;18.45;;;8.27;;
51048;SDS011;37084;55.228;36.450;2023-11-19T07:57:54;19.33;;;6.22;;
51048;SDS011;37084;55.228;36.450;2023-11-19T08:00:57;17.77;;;8.15;;
51048;SDS011;37084;55.228;36.450;2023-11-19T08:04:06;18.33;;;6.75;;
51048;SDS011;37084;55.228;36.450;2023-11-19T08:07:08;14.75;;;6.72;;
51048;SDS011;37084;55.228;36.450;2023-11-19T08:10:12;16.75;;;7.53;;
51048;SDS011;37084;55.228;36.450;2023-11-19T08:13:13;17.52;;;7.35;;
51048;SDS011;37084;55.228;36.450;2023-11-19T08:16:15;17.67;;;6.82;;
51048;SDS011;37084;55.228;36.450;2023-11-19T08:19:19;16.67;;;7.13;;
51048;SDS011;37084;55.228;36.450;2023-11-19T08:22:20;18.42;;;7.47;;
51048;SDS011;37084;55.228;36.450;2023-11-19T08:25:23;17.48;;;8.07;;
51048;SDS011;37084;55.228;36.450;2023-11-19T08:28:24;17.48;;;8.10;;
51048;SDS011;37084;55.228;36.450;2023-11-19T08:31:26;18.92;;;7.90;;
51048;SDS011;37084;55.228;36.450;2023-11-19T08:34:27;17.40;;;8.10;;
51048;SDS011;37084;55.228;36.450;2023-11-19T08:37:28;19.30;;;8.57;;
51048;SDS011;37084;55.228;36.450;2023-11-19T08:40:31;19.80;;;8.13;;
51048;SDS011;37084;55.228;36.450;2023-11-19T08:43:35;20.42;;;9.02;;
51048;SDS011;37084;55.228;36.450;2023-11-19T08:46:38;18.15;;;8.15;;
51048;SDS011;37084;55.228;36.450;2023-11-19T08:49:40;23.23;;;8.68;;
51048;SDS011;37084;55.228;36.450;2023-11-19T08:52:41;14.73;;;7.72;;
51048;SDS011;37084;55.228;36.450;2023-11-19T08:55:45;20.88;;;8.35;;
51048;SDS011;37084;55.228;36.450;2023-11-19T08:58:50;19.13;;;8.77;;
51048;SDS011;37084;55.228;36.450;2023-11-19T09:01:52;20.70;;;9.48;;
51048;SDS011;37084;55.228;36.450;2023-11-19T09:04:54;17.77;;;8.43;;
51048;SDS011;37084;55.228;36.450;2023-11-19T09:07:56;20.00;;;8.68;;
51048;SDS011;37084;55.228;36.450;2023-11-19T09:10:58;17.58;;;8.23;;
51048;SDS011;37084;55.228;36.450;2023-11-19T09:13:59;19.58;;;8.25;;
51048;SDS011;37084;55.228;36.450;2023-11-19T09:17:01;21.23;;;9.18;;
51048;SDS011;37084;55.228;36.450;2023-11-19T09:20:04;21.20;;;10.15;;
51048;SDS011;37084;55.228;36.450;2023-11-19T09:23:06;18.17;;;8.40;;
51048;SDS011;37084;55.228;36.450;2023-11-19T09:26:08;18.45;;;8.35;;
51048;SDS011;37084;55.228;36.450;2023-11-19T09:29:13;17.10;;;7.97;;
51048;SDS011;37084;55.228;36.450;2023-11-19T09:32:16;20.98;;;7.45;;
51048;SDS011;37084;55.228;36.450;2023-11-19T09:35:18;12.70;;;5.35;;
51048;SDS011;37084;55.228;36.450;2023-11-19T09:38:19;16.90;;;7.65;;
51048;SDS011;37084;55.228;36.450;2023-11-19T09:41:20;16.30;;;7.28;;
51048;SDS011;37084;55.228;36.450;2023-11-19T09:44:22;15.35;;;7.43;;
51048;SDS011;37084;55.228;36.450;2023-11-19T09:47:23;20.92;;;8.05;;
51048;SDS011;37084;55.228;36.450;2023-11-19T09:50:26;16.15;;;8.60;;
51048;SDS011;37084;55.228;36.450;2023-11-19T09:53:29;14.70;;;6.75;;
51048;SDS011;37084;55.228;36.450;2023-11-19T09:56:32;11.85;;;6.00;;
51048;SDS011;37084;55.228;36.450;2023-11-19T09:59:35;11.00;;;5.28;;
51048;SDS011;37084;55.228;36.450;2023-11-19T10:02:38;10.63;;;5.15;;
51048;SDS011;37084;55.228;36.450;2023-11-19T10:05:40;17.40;;;7.35;;
51048;SDS011;37084;55.228;36.450;2023-11-19T10:08:42;11.10;;;4.63;;
51048;SDS011;37084;55.228;36.450;2023-11-19T10:11:45;8.98;;;5.10;;
51048;SDS011;37084;55.228;36.450;2023-11-19T10:14:46;11.75;;;5.97;;
51048;SDS011;37084;55.228;36.450;2023-11-19T10:17:48;6.90;;;3.10;;
51048;SDS011;37084;55.228;36.450;2023-11-19T10:20:50;7.07;;;3.42;;
51048;SDS011;37084;55.228;36.450;2023-11-19T10:23:52;6.95;;;3.58;;
51048;SDS011;37084;55.228;36.450;2023-11-19T10:26:56;9.48;;;3.75;;
51048;SDS011;37084;55.228;36.450;2023-11-19T10:30:01;7.90;;;3.38;;
51048;SDS011;37084;55.228;36.450;2023-11-19T10:33:06;7.10;;;3.67;;
51048;SDS011;37084;55.228;36.450;2023-11-19T10:36:08;7.78;;;3.67;;
51048;SDS011;37084;55.228;36.450;2023-11-19T10:39:11;8.20;;;4.25;;
51048;SDS011;37084;55.228;36.450;2023-11-19T10:42:16;6.57;;;3.45;;
51048;SDS011;37084;55.228;36.450;2023-11-19T10:48:25;4.95;;;2.78;;
51048;SDS011;37084;55.228;36.450;2023-11-19T10:51:27;7.07;;;4.07;;
51048;SDS011;37084;55.228;36.450;2023-11-19T10:54:30;9.50;;;3.92;;
51048;SDS011;37084;55.228;36.450;2023-11-19T10:57:33;7.90;;;3.72;;
51048;SDS011;37084;55.228;36.450;2023-11-19T11:00:38;12.80;;;4.10;;
51048;SDS011;37084;55.228;36.450;2023-11-19T11:03:41;12.27;;;3.75;;
51048;SDS011;37084;55.228;36.450;2023-11-19T11:06:44;7.15;;;3.50;;
51048;SDS011;37084;55.228;36.450;2023-11-19T11:09:46;7.28;;;3.90;;
51048;SDS011;37084;55.228;36.450;2023-11-19T11:12:49;7.40;;;3.75;;
51048;SDS011;37084;55.228;36.450;2023-11-19T11:15:56;10.15;;;4.03;;
51048;SDS011;37084;55.228;36.450;2023-11-19T11:19:01;8.50;;;3.45;;
51048;SDS011;37084;55.228;36.450;2023-11-19T11:22:02;9.27;;;3.83;;
51048;SDS011;37084;55.228;36.450;2023-11-19T11:28:19;8.48;;;4.13;;
51048;SDS011;37084;55.228;36.450;2023-11-19T11:38:00;8.93;;;3.97;;
51048;SDS011;37084;55.228;36.450;2023-11-19T11:41:23;14.70;;;3.90;;
51048;SDS011;37084;55.228;36.450;2023-11-19T11:48:14;15.07;;;5.22;;
51048;SDS011;37084;55.228;36.450;2023-11-19T11:51:21;8.65;;;4.07;;
51048;SDS011;37084;55.228;36.450;2023-11-19T11:54:43;9.75;;;3.83;;
51048;SDS011;37084;55.228;36.450;2023-11-19T11:57:45;10.32;;;4.30;;
51048;SDS011;37084;55.228;36.450;2023-11-19T12:00:47;11.68;;;4.00;;
51048;SDS011;37084;55.228;36.450;2023-11-19T12:03:50;9.73;;;3.95;;
51048;SDS011;37084;55.228;36.450;2023-11-19T12:10:20;9.18;;;4.07;;
51048;SDS011;37084;55.228;36.450;2023-11-19T12:13:28;8.63;;;4.20;;
51048;SDS011;37084;55.228;36.450;2023-11-19T12:16:44;10.82;;;4.03;;
51048;SDS011;37084;55.228;36.450;2023-11-19T12:19:45;9.60;;;4.30;;
51048;SDS011;37084;55.228;36.450;2023-11-19T12:22:47;8.88;;;3.60;;
51048;SDS011;37084;55.228;36.450;2023-11-19T12:25:50;6.88;;;3.10;;
51048;SDS011;37084;55.228;36.450;2023-11-19T12:29:02;7.88;;;3.45;;
51048;SDS011;37084;55.228;36.450;2023-11-19T12:32:07;9.57;;;3.63;;
51048;SDS011;37084;55.228;36.450;2023-11-19T12:35:08;8.73;;;3.60;;
51048;SDS011;37084;55.228;36.450;2023-11-19T12:38:22;7.60;;;3.80;;
51048;SDS011;37084;55.228;36.450;2023-11-19T12:41:26;6.47;;;3.90;;
51048;SDS011;37084;55.228;36.450;2023-11-19T12:44:29;9.10;;;3.58;;
51048;SDS011;37084;55.228;36.450;2023-11-19T12:47:31;7.40;;;3.65;;
51048;SDS011;37084;55.228;36.450;2023-11-19T12:50:52;10.90;;;4.45;;
51048;SDS011;37084;55.228;36.450;2023-11-19T12:53:59;9.68;;;4.38;;
51048;SDS011;37084;55.228;36.450;2023-11-19T12:57:00;9.15;;;4.05;;
51048;SDS011;37084;55.228;36.450;2023-11-19T13:00:02;15.75;;;5.30;;
51048;SDS011;37084;55.228;36.450;2023-11-19T13:03:05;7.55;;;4.35;;
51048;SDS011;37084;55.228;36.450;2023-11-19T13:06:07;9.98;;;5.18;;
51048;SDS011;37084;55.228;36.450;2023-11-19T13:09:21;7.00;;;3.75;;
51048;SDS011;37084;55.228;36.450;2023-11-19T13:12:24;9.70;;;4.53;;
51048;SDS011;37084;55.228;36.450;2023-11-19T13:15:25;11.00;;;5.00;;
51048;SDS011;37084;55.228;36.450;2023-11-19T13:18:27;11.82;;;4.68;;
51048;SDS011;37084;55.228;36.450;2023-11-19T13:21:28;11.30;;;5.07;;
51048;SDS011;37084;55.228;36.450;2023-11-19T13:24:33;8.85;;;5.20;;
51048;SDS011;37084;55.228;36.450;2023-11-19T13:27:37;13.45;;;5.70;;
51048;SDS011;37084;55.228;36.450;2023-11-19T13:30:38;10.23;;;5.70;;
51048;SDS011;37084;55.228;36.450;2023-11-19T13:33:40;16.05;;;6.43;;
51048;SDS011;37084;55.228;36.450;2023-11-19T13:36:44;17.65;;;6.18;;
51048;SDS011;37084;55.228;36.450;2023-11-19T13:39:45;18.35;;;6.53;;
51048;SDS011;37084;55.228;36.450;2023-11-19T13:42:51;15.60;;;6.78;;
51048;SDS011;37084;55.228;36.450;2023-11-19T13:45:55;12.20;;;4.82;;
51048;SDS011;37084;55.228;36.450;2023-11-19T13:48:59;13.95;;;6.00;;
51048;SDS011;37084;55.228;36.450;2023-11-19T13:52:01;10.40;;;5.75;;
51048;SDS011;37084;55.228;36.450;2023-11-19T13:55:03;12.40;;;5.95;;
51048;SDS011;37084;55.228;36.450;2023-11-19T13:58:10;18.75;;;8.82;;
51048;SDS011;37084;55.228;36.450;2023-11-19T14:01:11;13.40;;;5.15;;
51048;SDS011;37084;55.228;36.450;2023-11-19T14:04:16;12.02;;;5.55;;
51048;SDS011;37084;55.228;36.450;2023-11-19T14:07:19;14.52;;;5.72;;
51048;SDS011;37084;55.228;36.450;2023-11-19T14:10:21;11.93;;;5.82;;
51048;SDS011;37084;55.228;36.450;2023-11-19T14:13:23;14.13;;;5.80;;
51048;SDS011;37084;55.228;36.450;2023-11-19T14:16:28;17.38;;;5.85;;
51048;SDS011;37084;55.228;36.450;2023-11-19T14:19:30;14.77;;;5.75;;
51048;SDS011;37084;55.228;36.450;2023-11-19T14:22:32;11.20;;;5.68;;
51048;SDS011;37084;55.228;36.450;2023-11-19T14:25:35;12.93;;;5.18;;
51048;SDS011;37084;55.228;36.450;2023-11-19T14:28:36;12.52;;;5.13;;
51048;SDS011;37084;55.228;36.450;2023-11-19T14:31:38;14.75;;;6.32;;
51048;SDS011;37084;55.228;36.450;2023-11-19T14:34:42;11.20;;;5.88;;
51048;SDS011;37084;55.228;36.450;2023-11-19T14:37:44;11.18;;;4.70;;
51048;SDS011;37084;55.228;36.450;2023-11-19T14:40:46;14.68;;;5.20;;
51048;SDS011;37084;55.228;36.450;2023-11-19T14:43:48;10.50;;;5.18;;
51048;SDS011;37084;55.228;36.450;2023-11-19T14:46:50;11.68;;;5.93;;
51048;SDS011;37084;55.228;36.450;2023-11-19T14:49:51;10.63;;;5.20;;
51048;SDS011;37084;55.228;36.450;2023-11-19T14:52:53;13.52;;;5.40;;
51048;SDS011;37084;55.228;36.450;2023-11-19T14:55:54;13.13;;;5.78;;
51048;SDS011;37084;55.228;36.450;2023-11-19T14:58:56;9.52;;;4.80;;
51048;SDS011;37084;55.228;36.450;2023-11-19T15:01:57;9.32;;;4.28;;
51048;SDS011;37084;55.228;36.450;2023-11-19T15:04:59;13.98;;;4.93;;
51048;SDS011;37084;55.228;36.450;2023-11-19T15:08:00;13.77;;;6.32;;
51048;SDS011;37084;55.228;36.450;2023-11-19T15:11:07;8.98;;;4.70;;
51048;SDS011;37084;55.228;36.450;2023-11-19T15:14:12;11.35;;;4.93;;
51048;SDS011;37084;55.228;36.450;2023-11-19T15:17:17;10.57;;;5.05;;
51048;SDS011;37084;55.228;36.450;2023-11-19T15:20:19;13.50;;;5.28;;
51048;SDS011;37084;55.228;36.450;2023-11-19T15:23:24;13.23;;;5.10;;
51048;SDS011;37084;55.228;36.450;2023-11-19T15:26:26;12.30;;;5.00;;
51048;SDS011;37084;55.228;36.450;2023-11-19T15:29:28;10.30;;;4.75;;
51048;SDS011;37084;55.228;36.450;2023-11-19T15:32:33;12.18;;;5.28;;
51048;SDS011;37084;55.228;36.450;2023-11-19T15:35:36;14.70;;;5.65;;
51048;SDS011;37084;55.228;36.450;2023-11-19T15:38:38;16.55;;;5.90;;
51048;SDS011;37084;55.228;36.450;2023-11-19T15:41:42;15.05;;;6.47;;
51048;SDS011;37084;55.228;36.450;2023-11-19T15:44:43;13.63;;;6.10;;
51048;SDS011;37084;55.228;36.450;2023-11-19T15:47:47;19.88;;;6.72;;
51048;SDS011;37084;55.228;36.450;2023-11-19T15:50:50;12.00;;;5.03;;
51048;SDS011;37084;55.228;36.450;2023-11-19T15:53:52;13.60;;;5.03;;
51048;SDS011;37084;55.228;36.450;2023-11-19T15:56:55;13.40;;;4.97;;
51048;SDS011;37084;55.228;36.450;2023-11-19T15:59:58;12.70;;;5.25;;
51048;SDS011;37084;55.228;36.450;2023-11-19T16:03:06;10.63;;;4.50;;
51048;SDS011;37084;55.228;36.450;2023-11-19T16:06:08;12.85;;;4.93;;
51048;SDS011;37084;55.228;36.450;2023-11-19T16:09:14;11.25;;;5.53;;
51048;SDS011;37084;55.228;36.450;2023-11-19T16:12:15;12.77;;;5.53;;
51048;SDS011;37084;55.228;36.450;2023-11-19T16:15:18;11.93;;;5.93;;
51048;SDS011;37084;55.228;36.450;2023-11-19T16:18:21;12.90;;;5.78;;
51048;SDS011;37084;55.228;36.450;2023-11-19T16:21:25;13.80;;;5.82;;
51048;SDS011;37084;55.228;36.450;2023-11-19T16:24:26;12.85;;;5.85;;
51048;SDS011;37084;55.228;36.450;2023-11-19T16:27:29;23.08;;;8.05;;
51048;SDS011;37084;55.228;36.450;2023-11-19T16:30:33;19.88;;;8.38;;
51048;SDS011;37084;55.228;36.450;2023-11-19T16:33:39;19.45;;;8.90;;
51048;SDS011;37084;55.228;36.450;2023-11-19T16:36:40;31.45;;;11.88;;
51048;SDS011;37084;55.228;36.450;2023-11-19T16:39:42;16.58;;;7.13;;
51048;SDS011;37084;55.228;36.450;2023-11-19T16:42:45;12.02;;;6.55;;
51048;SDS011;37084;55.228;36.450;2023-11-19T16:45:53;11.13;;;5.72;;
51048;SDS011;37084;55.228;36.450;2023-11-19T16:48:54;15.43;;;5.45;;
51048;SDS011;37084;55.228;36.450;2023-11-19T16:51:56;13.13;;;5.47;;
51048;SDS011;37084;55.228;36.450;2023-11-19T16:54:57;14.18;;;5.78;;
51048;SDS011;37084;55.228;36.450;2023-11-19T16:57:59;10.70;;;5.78;;
51048;SDS011;37084;55.228;36.450;2023-11-19T17:01:02;10.82;;;5.00;;
51048;SDS011;37084;55.228;36.450;2023-11-19T17:04:06;12.50;;;5.75;;
51048;SDS011;37084;55.228;36.450;2023-11-19T17:07:11;12.77;;;5.55;;
51048;SDS011;37084;55.228;36.450;2023-11-19T17:10:16;13.13;;;5.18;;
51048;SDS011;37084;55.228;36.450;2023-11-19T17:13:19;14.13;;;5.82;;
51048;SDS011;37084;55.228;36.450;2023-11-19T17:16:22;17.00;;;6.38;;
51048;SDS011;37084;55.228;36.450;2023-11-19T17:19:24;14.90;;;6.03;;
51048;SDS011;37084;55.228;36.450;2023-11-19T17:22:25;10.80;;;5.30;;
51048;SDS011;37084;55.228;36.450;2023-11-19T17:25:26;12.60;;;5.35;;
51048;SDS011;37084;55.228;36.450;2023-11-19T17:28:27;12.60;;;5.32;;
51048;SDS011;37084;55.228;36.450;2023-11-19T17:31:32;14.48;;;6.05;;
51048;SDS011;37084;55.228;36.450;2023-11-19T17:34:37;15.35;;;5.55;;
51048;SDS011;37084;55.228;36.450;2023-11-19T17:37:38;13.73;;;6.45;;
51048;SDS011;37084;55.228;36.450;2023-11-19T17:40:45;15.60;;;6.85;;
51048;SDS011;37084;55.228;36.450;2023-11-19T17:43:47;13.88;;;5.82;;
51048;SDS011;37084;55.228;36.450;2023-11-19T17:46:54;18.63;;;6.03;;
51048;SDS011;37084;55.228;36.450;2023-11-19T17:49:56;13.55;;;5.95;;
51048;SDS011;37084;55.228;36.450;2023-11-19T17:53:01;14.45;;;6.22;;
51048;SDS011;37084;55.228;36.450;2023-11-19T17:56:03;12.70;;;6.22;;
51048;SDS011;37084;55.228;36.450;2023-11-19T17:59:07;17.50;;;6.50;;
51048;SDS011;37084;55.228;36.450;2023-11-19T18:02:09;17.17;;;6.70;;
51048;SDS011;37084;55.228;36.450;2023-11-19T18:05:13;15.05;;;5.53;;
51048;SDS011;37084;55.228;36.450;2023-11-19T18:08:17;17.73;;;7.45;;
51048;SDS011;37084;55.228;36.450;2023-11-19T18:11:18;17.20;;;7.15;;
51048;SDS011;37084;55.228;36.450;2023-11-19T18:14:24;14.75;;;6.65;;